McNeil, AR

3:25 AM CDT on March 30, 2017 (GMT -0500)
Magnolia, Ar | | Change Station
Active Advisory: Flood Warning

Elev 20 ft 33.28 °N, 93.23 °W | Updated 30 seconds ago

Clear
Clear
61.9 °F
Feels Like 61.9 °F
N
4.7
Wind Variable Wind from SSW

Today
High -- | Low -- °F
--% Chance of Precip.
Yesterday
High -- | Low -- °F
Precip. -- in
Pressure 29.71 in
Visibility 6.0 miles
Clouds Few 10000 ft
Dew Point 60 °F
Humidity 93%
Rainfall 0.10 in
Snow Depth Not available.
7:02 AM 7:32 PM
Waxing Crescent, 7% visible
METAR KELD 300753Z AUTO 15005KT 6SM BR FEW100 16/16 A2972 RMK AO2 SLP061 T01610161
Pressure 29.71 in
Visibility 6.0 miles
Clouds Few 10000 ft
Dew Point 60 °F
Humidity 93%
Rainfall 0.10 in
Snow Depth Not available.
7:02 AM 7:32 PM
Waxing Crescent, 7% visible
METAR KELD 300753Z AUTO 15005KT 6SM BR FEW100 16/16 A2972 RMK AO2 SLP061 T01610161

Get Your Daily Forecast Email!

Thanks for signing up!

Be on the lookout for a verification email in your inbox.

You'll start receiving severe weather alerts in your inbox..

×

10-Day Weather Forecast

Almanac

Astronomy

Mar. 30, 2017 Rise Set
Actual Time
Civil Twilight
Nautical Twilight
Astronomical Twilight
Moon
Length of Visible Light
Length of Day
Tomorrow will be .
, % of the Moon is Illuminated

Today's Extremes

State Highs State Lows

Community

WunderPhotos

Upload Photos

1,962,540 photos uploaded!

WunderBlog® & News

Nearby

Air Quality

  Air Quality AQ Index Pollutant
Not available.

Snow Depth

Station Depth Elevation

Earthquake Activity

City Distance Mag. Time & Date
Minimum magnitude displayed is 2.5.

Earthquake Activity

City Distance Mag. Time & Date
Minimum magnitude displayed is 2.5.

Coastal Water Temperatures

Place Temperature

Stations

Nearby Weather Stations

Station Location Temp. Windchill Dew Point Humidity Wind Precip. Elev Updated Type
                   

Watches & Warnings

Flood Warning
Issued: 8:18 PM CDT Mar. 29, 2017 – National Weather Service

The Flood Warning continues for
The Bayou Dorcheat near Springhill.
* Until further notice... or until the warning is cancelled.
* At 8:00 PM Wednesday the stage was 11.3 feet.
* Minor flooding is occurring and minor flooding is forecast.
* Flood stage is 11.0 feet.
* Forecast... the river will continue rising to near 12.5 feet by
Sunday morning then begin falling.
* Impact... at 13.0 feet... minor lowland flooding of private boat
ramps. Move livestock to higher ground.


Lat... Lon 3317 9339 3300 9335 3282 9332 3282 9338 3300 9343


25